createdAt,value
2018-11-12T00:02:41.128Z,12.50
2018-11-12T00:06:53.218Z,12.50
2018-11-12T00:11:05.335Z,12.50
2018-11-12T00:15:17.484Z,12.40
2018-11-12T00:19:30.780Z,12.40
2018-11-12T00:23:42.976Z,12.30
2018-11-12T00:27:55.185Z,12.30
2018-11-12T00:32:07.287Z,12.20
2018-11-12T00:36:19.494Z,12.10
2018-11-12T00:40:31.543Z,12.20
2018-11-12T00:44:43.524Z,12.10
2018-11-12T00:48:55.683Z,12.10
2018-11-12T00:53:07.731Z,12.10
2018-11-12T00:57:19.958Z,12.20
2018-11-12T01:01:32.062Z,12.20
2018-11-12T01:05:44.110Z,12.30
2018-11-12T01:09:56.212Z,12.20
2018-11-12T01:14:08.307Z,12.20
2018-11-12T01:18:20.389Z,12.20
2018-11-12T01:22:32.388Z,12.20
2018-11-12T01:26:44.576Z,12.20
2018-11-12T01:31:02.138Z,12.10
2018-11-12T01:35:15.780Z,12.10
2018-11-12T01:39:28.107Z,12.20
2018-11-12T01:43:40.204Z,12.10
2018-11-12T01:47:52.415Z,12.10
2018-11-12T01:52:04.455Z,12.20
2018-11-12T01:56:16.631Z,12.20
2018-11-12T02:00:28.703Z,12.20
2018-11-12T02:04:40.745Z,12.30
2018-11-12T02:08:52.971Z,12.30
2018-11-12T02:13:05.272Z,12.30
2018-11-12T02:17:17.232Z,12.40
2018-11-12T02:21:29.327Z,12.40
2018-11-12T02:25:41.448Z,12.30
2018-11-12T02:29:53.595Z,12.30
2018-11-12T02:34:05.819Z,12.20
2018-11-12T02:38:17.812Z,12.20
2018-11-12T02:42:29.826Z,12.10
2018-11-12T02:46:41.936Z,12.10
2018-11-12T02:50:54.081Z,12.10
2018-11-12T02:55:07.151Z,12.20
2018-11-12T02:59:19.563Z,12.20
2018-11-12T03:03:31.864Z,12.20
2018-11-12T03:07:44.142Z,12.20
2018-11-12T03:11:56.250Z,12.20
2018-11-12T03:16:09.208Z,12.20
2018-11-12T03:20:22.534Z,12.20
2018-11-12T03:24:34.432Z,12.20
2018-11-12T03:28:47.528Z,12.20
2018-11-12T03:32:59.528Z,12.20
2018-11-12T03:37:11.626Z,12.20
2018-11-12T03:41:23.739Z,12.20
2018-11-12T03:45:35.857Z,12.20
2018-11-12T03:49:48.011Z,12.20
2018-11-12T03:53:59.975Z,12.20
2018-11-12T03:58:11.972Z,12.20
2018-11-12T04:02:24.080Z,12.20
2018-11-12T04:06:36.220Z,12.10
2018-11-12T04:10:48.292Z,12.10
2018-11-12T04:15:00.310Z,12.10
2018-11-12T04:19:12.516Z,12.10
2018-11-12T04:23:24.671Z,12.10
2018-11-12T04:27:36.847Z,12.20
2018-11-12T04:31:48.965Z,12.20
2018-11-12T04:36:01.175Z,12.20
2018-11-12T04:40:15.516Z,12.20
2018-11-12T04:44:27.289Z,12.20
2018-11-12T04:48:39.340Z,12.10
2018-11-12T04:52:51.552Z,12.10
2018-11-12T04:57:03.528Z,12.10
2018-11-12T05:01:15.623Z,12.10
2018-11-12T05:05:29.040Z,12.20
2018-11-12T05:09:41.262Z,12.20
2018-11-12T05:13:53.247Z,12.30
2018-11-12T05:18:05.311Z,12.30
2018-11-12T05:22:17.443Z,12.20
2018-11-12T05:26:29.536Z,12.20
2018-11-12T05:30:41.747Z,12.10
2018-11-12T05:34:53.894Z,12.10
2018-11-12T05:39:07.817Z,12.00
2018-11-12T05:43:19.795Z,12.00
2018-11-12T05:47:31.802Z,11.90
2018-11-12T05:51:43.934Z,11.90
2018-11-12T05:55:55.935Z,11.90
2018-11-12T06:00:08.892Z,11.90
2018-11-12T06:04:20.701Z,12.00
2018-11-12T06:08:32.711Z,11.90
2018-11-12T06:12:45.157Z,11.90
2018-11-12T06:16:56.934Z,11.90
2018-11-12T06:21:08.899Z,11.90
2018-11-12T06:25:22.066Z,11.80
2018-11-12T06:29:34.212Z,11.80
2018-11-12T06:33:46.320Z,11.90
2018-11-12T06:37:58.626Z,11.80
2018-11-12T06:42:10.657Z,11.90
2018-11-12T06:46:22.781Z,11.80
2018-11-12T06:50:35.129Z,11.80
2018-11-12T06:54:47.140Z,11.80
2018-11-12T06:58:59.303Z,11.80
2018-11-12T07:03:11.317Z,11.80
2018-11-12T07:07:23.396Z,11.80
2018-11-12T07:11:35.396Z,11.90
2018-11-12T07:15:47.503Z,11.80
2018-11-12T07:19:59.621Z,11.80
2018-11-12T07:24:12.495Z,11.80
2018-11-12T07:28:24.446Z,11.90
2018-11-12T07:32:36.376Z,11.90
2018-11-12T07:36:48.377Z,11.90
2018-11-12T07:41:00.443Z,11.90
2018-11-12T07:45:16.142Z,12.00
2018-11-12T07:49:28.449Z,12.00
2018-11-12T07:53:40.687Z,12.00
2018-11-12T07:57:53.953Z,12.10
2018-11-12T08:02:05.703Z,12.20
2018-11-12T08:06:17.781Z,12.20
2018-11-12T08:10:29.975Z,12.30
2018-11-12T08:14:41.880Z,12.40
2018-11-12T08:18:53.855Z,12.50
2018-11-12T08:23:05.787Z,12.60
2018-11-12T08:27:18.062Z,12.70
2018-11-12T08:31:30.014Z,12.70
2018-11-12T08:35:42.671Z,12.80
2018-11-12T08:39:54.530Z,12.80
2018-11-12T08:44:06.344Z,12.90
2018-11-12T08:48:18.501Z,13.00
2018-11-12T08:52:30.825Z,13.10
2018-11-12T08:56:43.855Z,13.10
2018-11-12T09:00:56.193Z,13.20
2018-11-12T09:05:10.388Z,13.30
2018-11-12T09:09:22.607Z,13.30
2018-11-12T09:13:34.488Z,13.40
2018-11-12T09:17:47.512Z,13.40
2018-11-12T09:21:59.683Z,13.50
2018-11-12T09:26:11.880Z,13.50
2018-11-12T09:30:28.760Z,13.60
2018-11-12T09:34:40.945Z,13.60
2018-11-12T09:38:53.145Z,13.70
2018-11-12T09:43:05.239Z,13.80
2018-11-12T09:47:17.275Z,13.80
2018-11-12T09:51:32.011Z,13.90
2018-11-12T09:55:44.213Z,14.00
2018-11-12T09:59:56.366Z,14.20
2018-11-12T10:04:09.327Z,14.30
2018-11-12T10:08:22.334Z,14.50
2018-11-12T10:12:34.861Z,14.60
2018-11-12T10:16:47.262Z,14.80
2018-11-12T10:20:56.663Z,14.90
2018-11-12T10:25:08.770Z,15.00
2018-11-12T10:29:21.809Z,15.00
2018-11-12T10:33:33.555Z,15.10
2018-11-12T10:37:46.624Z,15.00
2018-11-12T10:41:58.739Z,14.90
2018-11-12T10:46:11.684Z,14.70
2018-11-12T10:50:23.890Z,14.90
2018-11-12T10:54:35.727Z,15.00
2018-11-12T10:58:48.198Z,15.30
2018-11-12T11:03:06.439Z,15.60
2018-11-12T11:07:18.311Z,15.60
2018-11-12T11:11:30.203Z,15.60
2018-11-12T11:15:42.303Z,15.70
2018-11-12T11:19:54.315Z,15.60
2018-11-12T11:24:06.271Z,15.70
2018-11-12T11:28:18.308Z,15.60
2018-11-12T11:32:32.297Z,15.60
2018-11-12T11:36:44.383Z,15.70
2018-11-12T11:40:56.835Z,15.80
2018-11-12T11:45:09.898Z,15.90
2018-11-12T11:49:22.225Z,16.00
2018-11-12T11:53:34.720Z,15.90
2018-11-12T11:57:47.005Z,15.90
2018-11-12T12:01:58.912Z,15.80
2018-11-12T12:06:10.797Z,15.80
2018-11-12T12:10:23.036Z,15.70
2018-11-12T12:14:34.774Z,15.50
2018-11-12T12:18:46.794Z,15.60
2018-11-12T12:22:59.138Z,15.60
2018-11-12T12:27:11.020Z,15.50
2018-11-12T12:31:23.244Z,15.60
2018-11-12T12:35:35.175Z,15.60
2018-11-12T12:39:48.324Z,15.60
2018-11-12T12:44:00.322Z,15.50
2018-11-12T12:48:12.432Z,15.40
2018-11-12T12:52:24.559Z,15.60
2018-11-12T12:56:36.917Z,15.70
2018-11-12T13:00:49.056Z,15.60
2018-11-12T13:05:01.108Z,15.50
2018-11-12T13:09:13.062Z,15.60
2018-11-12T13:13:24.959Z,15.60
2018-11-12T13:17:36.971Z,15.70
2018-11-12T13:21:49.027Z,15.70
2018-11-12T13:26:01.194Z,15.90
2018-11-12T13:30:16.776Z,15.80
2018-11-12T13:34:28.675Z,15.70
2018-11-12T13:38:40.523Z,15.60
2018-11-12T13:42:54.156Z,15.40
2018-11-12T13:47:06.547Z,15.10
2018-11-12T13:51:18.512Z,14.90
2018-11-12T13:55:30.539Z,14.90
2018-11-12T13:59:42.407Z,14.80
2018-11-12T14:03:54.560Z,14.70
2018-11-12T14:08:06.607Z,14.90
2018-11-12T14:12:18.700Z,14.90
2018-11-12T14:16:30.784Z,14.80
2018-11-12T14:20:42.964Z,14.70
2018-11-12T14:24:54.904Z,14.60
2018-11-12T14:29:07.065Z,14.50
2018-11-12T14:33:19.091Z,14.50
2018-11-12T14:37:31.111Z,14.40
2018-11-12T14:41:43.033Z,14.40
2018-11-12T14:45:55.144Z,14.20
2018-11-12T14:50:07.270Z,14.20
2018-11-12T14:54:19.243Z,14.10
2018-11-12T14:58:31.368Z,14.00
2018-11-12T15:02:43.492Z,13.90
2018-11-12T15:06:55.636Z,13.90
2018-11-12T15:11:07.735Z,13.90
2018-11-12T15:15:19.802Z,13.80
2018-11-12T15:19:31.892Z,13.70
2018-11-12T15:23:43.891Z,13.70
2018-11-12T15:27:56.033Z,13.70
2018-11-12T15:32:08.579Z,13.80
2018-11-12T15:36:20.575Z,13.80
2018-11-12T15:40:32.558Z,13.80
2018-11-12T15:44:44.633Z,13.80
2018-11-12T15:48:56.749Z,13.70
2018-11-12T15:53:08.767Z,13.60
2018-11-12T15:57:20.978Z,13.50
2018-11-12T16:01:33.084Z,13.40
2018-11-12T16:05:45.101Z,13.30
2018-11-12T16:09:58.664Z,13.30
2018-11-12T16:14:11.230Z,13.20
2018-11-12T16:18:23.212Z,13.20
2018-11-12T16:22:35.252Z,13.20
2018-11-12T16:26:47.368Z,13.10
2018-11-12T16:30:59.652Z,13.10
2018-11-12T16:35:14.126Z,13.00
2018-11-12T16:39:26.256Z,13.00
2018-11-12T16:43:38.360Z,13.00
2018-11-12T16:47:50.359Z,12.90
2018-11-12T16:52:02.471Z,12.80
2018-11-12T16:56:14.590Z,12.80
2018-11-12T17:00:26.858Z,12.70
2018-11-12T17:04:38.880Z,12.80
2018-11-12T17:08:50.848Z,12.80
2018-11-12T17:13:02.911Z,12.80
2018-11-12T17:17:14.926Z,12.80
2018-11-12T17:21:27.031Z,12.80
2018-11-12T17:25:39.144Z,12.80
2018-11-12T17:29:51.239Z,12.70
2018-11-12T17:34:03.291Z,12.70
2018-11-12T17:38:15.447Z,12.70
2018-11-12T17:42:27.635Z,12.60
2018-11-12T17:46:39.676Z,12.60
2018-11-12T17:50:51.700Z,12.60
2018-11-12T17:55:03.785Z,12.50
2018-11-12T17:59:15.900Z,12.50
2018-11-12T18:03:28.010Z,12.50
2018-11-12T18:07:40.546Z,12.50
2018-11-12T18:11:52.534Z,12.50
2018-11-12T18:16:06.262Z,12.50
2018-11-12T18:20:20.289Z,12.50
2018-11-12T18:24:32.244Z,12.50
2018-11-12T18:28:44.092Z,12.50
2018-11-12T18:32:56.979Z,12.50
2018-11-12T18:37:09.377Z,12.50
2018-11-12T18:41:21.603Z,12.40
2018-11-12T18:45:33.598Z,12.40
2018-11-12T18:49:45.704Z,12.40
2018-11-12T18:53:59.903Z,12.40
2018-11-12T18:58:12.182Z,12.40
2018-11-12T19:02:24.048Z,12.40
2018-11-12T19:06:38.632Z,12.50
2018-11-12T19:10:50.974Z,12.60
2018-11-12T19:15:02.884Z,12.60
2018-11-12T19:19:14.966Z,12.60
2018-11-12T19:23:27.064Z,12.60
2018-11-12T19:27:39.184Z,12.60
2018-11-12T19:31:51.266Z,12.60
2018-11-12T19:36:03.631Z,12.60
2018-11-12T19:40:16.987Z,12.60
2018-11-12T19:44:29.241Z,12.60
2018-11-12T19:48:41.594Z,12.60
2018-11-12T19:52:54.808Z,12.70
2018-11-12T19:57:08.579Z,12.80
2018-11-12T20:01:20.759Z,12.80
2018-11-12T20:05:32.777Z,12.70
2018-11-12T20:09:44.932Z,12.70
2018-11-12T20:13:57.227Z,12.70
2018-11-12T20:18:09.183Z,12.60
2018-11-12T20:22:21.300Z,12.60
2018-11-12T20:26:33.299Z,12.50
2018-11-12T20:30:45.403Z,12.50
2018-11-12T20:34:57.433Z,12.50
2018-11-12T20:39:10.962Z,12.50
2018-11-12T20:43:23.061Z,12.50
2018-11-12T20:47:35.201Z,12.40
2018-11-12T20:51:47.300Z,12.40
2018-11-12T20:55:59.404Z,12.40
2018-11-12T21:00:15.226Z,12.30
2018-11-12T21:04:27.128Z,12.40
2018-11-12T21:08:39.200Z,12.40
2018-11-12T21:12:51.676Z,12.40
2018-11-12T21:17:03.564Z,12.40
2018-11-12T21:21:15.620Z,12.30
2018-11-12T21:25:28.203Z,12.40
2018-11-12T21:29:40.119Z,12.40
2018-11-12T21:33:52.196Z,12.30
2018-11-12T21:38:04.261Z,12.30
2018-11-12T21:42:16.558Z,12.30
2018-11-12T21:46:28.529Z,12.30
2018-11-12T21:50:40.591Z,12.20
2018-11-12T21:54:52.564Z,12.20
2018-11-12T21:59:04.652Z,12.20
2018-11-12T22:03:16.892Z,12.20
2018-11-12T22:07:28.947Z,12.20
2018-11-12T22:11:41.159Z,12.20
2018-11-12T22:15:53.489Z,12.20
2018-11-12T22:20:06.355Z,12.20
2018-11-12T22:24:18.496Z,12.30
2018-11-12T22:28:30.616Z,12.20
2018-11-12T22:32:46.464Z,12.20
2018-11-12T22:37:01.849Z,12.20
2018-11-12T22:41:13.821Z,12.20
2018-11-12T22:45:27.868Z,12.20
2018-11-12T22:49:43.566Z,12.30
2018-11-12T22:53:55.579Z,12.30
2018-11-12T22:58:07.628Z,12.30
2018-11-12T23:02:19.590Z,12.30
2018-11-12T23:06:31.751Z,12.30
2018-11-12T23:10:43.763Z,12.40
2018-11-12T23:14:55.850Z,12.40
2018-11-12T23:19:08.242Z,12.40
2018-11-12T23:23:20.180Z,12.40
2018-11-12T23:27:32.294Z,12.50
2018-11-12T23:31:44.384Z,12.40
2018-11-12T23:35:56.507Z,12.40
2018-11-12T23:40:09.517Z,12.30
2018-11-12T23:44:21.484Z,12.30
2018-11-12T23:48:33.414Z,12.30
2018-11-12T23:52:46.095Z,12.30
2018-11-12T23:56:58.368Z,12.30
